Andre.l — FMFE — position and weather

sailwx.info

Track history (hours):
 
Tides and Currents Weather Stations Pressure Air Temp Water Temp Dewpoint Dewpoint Depression Visibility Wind Speed Wind Dir Waves Ship Positions

Andre.l

Last reported at 2018-Feb-19 00:00 UTC. Time now 2018-Feb-19 00:25 UTC.
Position N 45°45' W 001°28'.

Length 84 m; draft 4.3 m.

Type: Cargo ship. MMSI: 228219600.

Date/timePositionNaut miles runAvg speedWind from/ knotsBaromVisibWave heightAir tempDewpointWater temp
2018-Feb-19 00:00N 45°45' W 001°28'7 8.0
2018-Feb-18 23:11N 45°51' W 001°31'2 7.9
2018-Feb-18 22:58N 45°53' W 001°32'3 7.6
2018-Feb-18 22:30N 45°56' W 001°34'4 7.7
2018-Feb-18 22:00N 45°60' W 001°36'4 7.7
2018-Feb-18 21:30N 46°03' W 001°38'4 7.8
2018-Feb-18 21:00N 46°07' W 001°39'4 7.7
2018-Feb-18 20:30N 46°11' W 001°41'4 7.9
2018-Feb-18 20:00N 46°14' W 001°43'4 7.9
2018-Feb-18 19:30N 46°18' W 001°45'4 8.0
2018-Feb-18 19:00N 46°22' W 001°46'4 7.6
2018-Feb-18 18:30N 46°26' W 001°47'4 7.2
2018-Feb-18 18:00N 46°29' W 001°47'1 1.6
2018-Feb-18 17:30N 46°30' W 001°48'0 0.0
2018-Feb-18 17:00N 46°30' W 001°48'1 1.5
2018-Feb-18 16:30N 46°29' W 001°47'2 4.9
2018-Feb-18 16:00N 46°27' W 001°47'2 4.7
2018-Feb-18 15:30N 46°25' W 001°46'3 5.7
2018-Feb-18 15:00N 46°22' W 001°45'3 5.0
2018-Feb-18 14:30N 46°19' W 001°44'3 5.1
2018-Feb-18 14:00N 46°17' W 001°43'3 5.1
2018-Feb-18 13:30N 46°14' W 001°42'3 5.4
2018-Feb-18 13:00N 46°12' W 001°41'3 6.3
2018-Feb-18 12:30N 46°09' W 001°39'3 7.0
2018-Feb-18 12:00N 46°06' W 001°37'1 2.3
2018-Feb-18 11:31N 46°05' W 001°36'0 0.1
2018-Feb-18 11:00N 46°05' W 001°36'0 0.6
2018-Feb-18 10:31N 46°05' W 001°36'0 0.6
2018-Feb-18 10:00N 46°05' W 001°36'0 0.2
2018-Feb-18 09:31N 46°05' W 001°35'2 4.1
2018-Feb-18 09:00N 46°07' W 001°38'4 8.8
2018-Feb-18 08:30N 46°11' W 001°41'5 9.4
2018-Feb-18 08:00N 46°15' W 001°43'5 9.5
2018-Feb-18 07:30N 46°20' W 001°44'4 8.5
2018-Feb-18 07:00N 46°24' W 001°46'3 6.1
2018-Feb-18 06:30N 46°27' W 001°46'3 6.3
2018-Feb-18 06:00N 46°30' W 001°48'0 0.5
2018-Feb-18 05:30N 46°30' W 001°48'0 0.0
2018-Feb-18 05:00N 46°30' W 001°48'0 0.3
2018-Feb-18 04:30N 46°30' W 001°48'2 4.4
2018-Feb-18 04:00N 46°28' W 001°49'4 8.8
2018-Feb-18 03:30N 46°29' W 001°55'4 9.0
2018-Feb-18 03:00N 46°32' W 001°60'5 9.0
2018-Feb-18 02:30N 46°36' W 002°04'5 9.1
2018-Feb-18 02:00N 46°39' W 002°09'5 9.1
2018-Feb-18 01:30N 46°42' W 002°14'4 7.0
2018-Feb-18 01:00N 46°45' W 002°17'5 9.3
2018-Feb-18 00:30N 46°48' W 002°22'510.2
2018-Feb-18 00:00N 46°52' W 002°27'5 9.6
2018-Feb-17 23:30N 46°56' W 002°31'5 9.1
2018-Feb-17 23:00N 46°60' W 002°34'1 2.1
2018-Feb-17 22:30N 47°00' W 002°33'1 1.1
2018-Feb-17 22:00N 47°00' W 002°34'1 1.0
2018-Feb-17 21:30N 46°60' W 002°35'1 1.0
2018-Feb-17 21:00N 46°60' W 002°35'2 4.1
2018-Feb-17 20:27N 47°00' W 002°38'612.8
2018-Feb-17 20:00N 47°05' W 002°44'713.1
2018-Feb-17 19:30N 47°10' W 002°49'713.2
2018-Feb-17 19:00N 47°15' W 002°56'713.4
2018-Feb-17 18:30N 47°20' W 003°02'613.1
2018-Feb-17 18:00N 47°26' W 003°08'612.9
2018-Feb-17 17:31N 47°31' W 003°13'712.9
2018-Feb-17 17:00N 47°36' W 003°18'612.4
2018-Feb-17 16:30N 47°42' W 003°22'4 7.0
2018-Feb-17 16:00N 47°45' W 003°19'0 0.0
2018-Feb-17 15:31N 47°45' W 003°19'0 0.0
2018-Feb-17 15:01N 47°45' W 003°19'1 2.5
2018-Feb-17 14:30N 47°44' W 003°21'3 6.7
2018-Feb-17 14:00N 47°41' W 003°24'3 5.3
2018-Feb-17 13:30N 47°39' W 003°23'3 6.7
2018-Feb-17 13:00N 47°36' W 003°19'4 7.9
2018-Feb-17 12:31N 47°33' W 003°16'4 8.1
2018-Feb-17 12:00N 47°30' W 003°12'4 7.9
2018-Feb-17 11:31N 47°26' W 003°09'3 6.0
2018-Feb-17 11:00N 47°24' W 003°07'3 6.4
2018-Feb-17 10:30N 47°21' W 003°04'3 6.8
2018-Feb-17 10:00N 47°19' W 003°01'3 6.4
2018-Feb-17 09:31N 47°16' W 002°58'3 6.7
2018-Feb-17 09:00N 47°14' W 002°55'3 6.9
2018-Feb-17 08:30N 47°11' W 002°52'4 7.5
2018-Feb-17 08:00N 47°08' W 002°49'3 5.3
2018-Feb-17 07:30N 47°06' W 002°46'2 4.3
2018-Feb-17 07:00N 47°05' W 002°43'3 6.3
2018-Feb-17 06:30N 47°02' W 002°40'3 6.3
2018-Feb-17 06:01N 46°60' W 002°38'1 2.7
2018-Feb-17 05:30N 46°59' W 002°36'1 1.9
2018-Feb-17 05:00N 46°60' W 002°35'1 1.6
2018-Feb-17 04:30N 47°00' W 002°34'0 0.6
2018-Feb-17 04:00N 47°00' W 002°33'1 2.3
2018-Feb-17 03:30N 46°60' W 002°35'2 3.2
2018-Feb-17 03:00N 46°59' W 002°37'2 4.8
2018-Feb-17 02:29N 47°01' W 002°39'2 4.3
2018-Feb-17 01:56N 47°03' W 002°41'2 5.1
2018-Feb-17 01:28N 47°05' W 002°43'2 4.8
2018-Feb-17 01:00N 47°07' W 002°46'2 5.0
2018-Feb-17 00:31N 47°09' W 002°47'3 5.1
2018-Feb-17 00:00N 47°11' W 002°50'3 5.2
2018-Feb-16 23:30N 47°13' W 002°52'3 5.3
2018-Feb-16 23:01N 47°15' W 002°55'3 5.4
2018-Feb-16 22:31N 47°17' W 002°58'3 5.6
2018-Feb-16 22:01N 47°19' W 003°00'3 5.8
2018-Feb-16 21:31N 47°21' W 003°03'4 7.0
2018-Feb-16 21:00N 47°24' W 003°06'3 6.0
2018-Feb-16 20:31N 47°26' W 003°09'3 5.2
2018-Feb-16 20:01N 47°28' W 003°11'3 5.3
2018-Feb-16 19:31N 47°30' W 003°13'3 6.0
2018-Feb-16 19:01N 47°33' W 003°16'612.3
2018-Feb-16 18:30N 47°38' W 003°20'611.6
2018-Feb-16 18:00N 47°44' W 003°21'1 3.0
2018-Feb-16 17:30N 47°45' W 003°19'0 0.0
2018-Feb-16 17:00N 47°45' W 003°19'1 2.8
2018-Feb-16 16:30N 47°44' W 003°21'510.5
2018-Feb-16 16:00N 47°39' W 003°21'612.4
2018-Feb-16 15:30N 47°34' W 003°16'612.0
2018-Feb-16 15:00N 47°29' W 003°11'611.4
2018-Feb-16 14:30N 47°24' W 003°06'612.2
2018-Feb-16 14:00N 47°19' W 003°01'612.5
2018-Feb-16 13:30N 47°15' W 002°54'612.2
2018-Feb-16 13:00N 47°10' W 002°48'612.0
2018-Feb-16 12:30N 47°05' W 002°43'612.2
2018-Feb-16 12:00N 47°01' W 002°37'612.6
2018-Feb-16 11:30N 46°56' W 002°31'612.3
2018-Feb-16 11:00N 46°51' W 002°26'612.1
2018-Feb-16 10:30N 46°46' W 002°20'611.9
2018-Feb-16 10:01N 46°42' W 002°14'612.4
2018-Feb-16 09:30N 46°37' W 002°09'612.4
2018-Feb-16 09:00N 46°32' W 002°03'612.4
2018-Feb-16 08:30N 46°27' W 001°58'612.3
2018-Feb-16 08:00N 46°22' W 001°53'612.3
2018-Feb-16 07:30N 46°17' W 001°47'612.2
2018-Feb-16 07:00N 46°13' W 001°42'612.0
2018-Feb-16 06:30N 46°08' W 001°36'2 5.0
2018-Feb-16 06:00N 46°06' W 001°34'0 0.4
2018-Feb-16 05:30N 46°06' W 001°35'1 1.5
2018-Feb-16 05:00N 46°06' W 001°34'0 0.0
2018-Feb-16 04:30N 46°06' W 001°34'1 1.8
2018-Feb-16 04:00N 46°06' W 001°35'510.4
2018-Feb-16 03:30N 46°10' W 001°40'612.8
2018-Feb-16 03:00N 46°15' W 001°45'612.5
2018-Feb-16 02:30N 46°20' W 001°51'612.6
2018-Feb-16 02:00N 46°25' W 001°56'612.7
2018-Feb-16 01:30N 46°30' W 002°02'612.6
2018-Feb-16 01:00N 46°35' W 002°07'612.6
2018-Feb-16 00:30N 46°40' W 002°13'612.5
2018-Feb-16 00:01N 46°45' W 002°19'612.5
2018-Feb-15 23:30N 46°50' W 002°25'612.1
2018-Feb-15 23:00N 46°54' W 002°30'611.7
2018-Feb-15 22:30N 46°59' W 002°36'612.1
2018-Feb-15 22:00N 47°03' W 002°42'612.1
2018-Feb-15 21:30N 47°07' W 002°48'612.3
2018-Feb-15 21:00N 47°13' W 002°53'612.3
2018-Feb-15 20:30N 47°17' W 002°59'612.6
2018-Feb-15 20:00N 47°22' W 003°05'611.6
2018-Feb-15 19:30N 47°27' W 003°10'612.0
2018-Feb-15 19:00N 47°32' W 003°15'612.6
2018-Feb-15 18:30N 47°37' W 003°19'612.0
2018-Feb-15 18:00N 47°43' W 003°22'2 4.9
2018-Feb-15 17:30N 47°45' W 003°19'0 0.0
2018-Feb-15 17:00N 47°45' W 003°19'1 1.0
2018-Feb-15 16:30N 47°44' W 003°20'4 8.7
2018-Feb-15 16:00N 47°40' W 003°22'611.5
2018-Feb-15 15:30N 47°36' W 003°17'611.2
2018-Feb-15 15:00N 47°31' W 003°13'511.0
2018-Feb-15 14:30N 47°26' W 003°09'611.3
2018-Feb-15 14:00N 47°21' W 003°04'611.9
2018-Feb-15 13:30N 47°17' W 002°58'611.3
2018-Feb-15 13:00N 47°13' W 002°53'611.3
2018-Feb-15 12:31N 47°09' W 002°47'611.0
2018-Feb-15 12:00N 47°05' W 002°42'611.4
2018-Feb-15 11:29N 46°60' W 002°36'511.7
2018-Feb-15 11:00N 46°56' W 002°31'611.4
2018-Feb-15 10:30N 46°51' W 002°26'611.3
2018-Feb-15 10:00N 46°47' W 002°20'611.4
2018-Feb-15 09:30N 46°42' W 002°15'611.4
2018-Feb-15 09:00N 46°39' W 002°09'611.1
2018-Feb-15 08:30N 46°35' W 002°03'611.2
2018-Feb-15 08:00N 46°31' W 001°57'611.3
2018-Feb-15 07:30N 46°27' W 001°52'611.3
2018-Feb-15 07:00N 46°23' W 001°46'1 1.7
2018-Feb-15 06:30N 46°22' W 001°45'0 0.4
2018-Feb-15 06:00N 46°22' W 001°45'1 1.0
2018-Feb-15 05:30N 46°22' W 001°44'1 1.4
2018-Feb-15 05:00N 46°22' W 001°45'4 8.1
2018-Feb-15 04:30N 46°26' W 001°46'4 7.3
2018-Feb-15 04:00N 46°30' W 001°48'0 0.0
2018-Feb-15 03:30N 46°30' W 001°48'0 0.0
2018-Feb-15 03:00N 46°30' W 001°48'2 3.1
2018-Feb-15 02:30N 46°29' W 001°47'4 7.2
2018-Feb-15 02:00N 46°25' W 001°46'3 7.0
2018-Feb-15 01:30N 46°22' W 001°45'3 6.6
2018-Feb-15 01:00N 46°18' W 001°44'4 7.4
2018-Feb-15 00:30N 46°15' W 001°43'4 7.1
2018-Feb-15 00:00N 46°11' W 001°41'3 6.9
2018-Feb-14 23:30N 46°08' W 001°39'3 6.1
2018-Feb-14 23:00N 46°06' W 001°37'1 2.0
2018-Feb-14 22:30N 46°06' W 001°35'1 1.5
2018-Feb-14 22:00N 46°06' W 001°34'0 0.7
2018-Feb-14 21:30N 46°06' W 001°33'1 2.1
2018-Feb-14 21:00N 46°06' W 001°35'3 5.6
2018-Feb-14 20:30N 46°09' W 001°36'4 7.0
2018-Feb-14 20:00N 46°11' W 001°40'4 7.1
2018-Feb-14 19:30N 46°14' W 001°42'3 6.1
2018-Feb-14 19:00N 46°17' W 001°44'3 6.0
2018-Feb-14 18:30N 46°20' W 001°45'3 6.0
2018-Feb-14 18:00N 46°23' W 001°46'3 5.5
2018-Feb-14 17:30N 46°26' W 001°46'2 4.8
2018-Feb-14 17:00N 46°28' W 001°47'2 4.0
2018-Feb-14 16:30N 46°30' W 001°48'0 0.0
2018-Feb-14 16:00N 46°30' W 001°48'0 0.0
2018-Feb-14 15:30N 46°30' W 001°48'2 3.5
2018-Feb-14 15:00N 46°28' W 001°47'4 8.6
2018-Feb-14 14:30N 46°24' W 001°46'4 8.8
2018-Feb-14 14:00N 46°20' W 001°45'4 8.9
2018-Feb-14 13:30N 46°15' W 001°43'4 8.6
2018-Feb-14 13:00N 46°11' W 001°41'4 8.5
2018-Feb-14 12:30N 46°08' W 001°38'3 5.7
2018-Feb-14 12:00N 46°05' W 001°36'0 0.2
2018-Feb-14 11:30N 46°05' W 001°36'0 0.5
2018-Feb-14 11:00N 46°06' W 001°36'0 0.3
2018-Feb-14 10:30N 46°06' W 001°36'0 0.3
2018-Feb-14 10:00N 46°05' W 001°36'1 3.0
2018-Feb-14 09:30N 46°06' W 001°37'3 6.8
2018-Feb-14 09:00N 46°09' W 001°39'2 3.9
2018-Feb-14 08:30N 46°11' W 001°41'2 4.5
2018-Feb-14 08:00N 46°13' W 001°43'2 4.3
2018-Feb-14 07:30N 46°15' W 001°44'2 4.1
2018-Feb-14 07:00N 46°17' W 001°46'2 4.3
2018-Feb-14 06:30N 46°18' W 001°48'2 4.5
2018-Feb-14 06:00N 46°20' W 001°49'3 5.1
2018-Feb-14 05:29N 46°23' W 001°50'3 6.0
2018-Feb-14 05:00N 46°25' W 001°48'3 5.3
2018-Feb-14 04:30N 46°28' W 001°47'2 4.4
2018-Feb-14 04:00N 46°30' W 001°48'0 0.0
2018-Feb-14 03:30N 46°30' W 001°48'0 0.0
2018-Feb-14 03:00N 46°30' W 001°48'1 2.9
2018-Feb-14 02:30N 46°29' W 001°47'3 5.1
2018-Feb-14 02:00N 46°26' W 001°47'2 4.8
2018-Feb-14 01:30N 46°24' W 001°46'2 4.7
2018-Feb-14 01:00N 46°21' W 001°46'2 4.8
2018-Feb-14 00:30N 46°19' W 001°46'2 5.0
2018-Feb-14 00:00N 46°17' W 001°45'2 4.8
2018-Feb-13 23:30N 46°14' W 001°43'2 4.3
2018-Feb-13 23:00N 46°13' W 001°41'2 4.2
2018-Feb-13 22:30N 46°11' W 001°40'2 4.6
2018-Feb-13 22:00N 46°09' W 001°38'3 5.2
2018-Feb-13 21:30N 46°07' W 001°37'2 3.0
2018-Feb-13 21:00N 46°05' W 001°36'0 1.0
2018-Feb-13 20:30N 46°05' W 001°35'0 0.1
2018-Feb-13 20:00N 46°05' W 001°36'0 0.5
2018-Feb-13 19:30N 46°05' W 001°36'2 3.2
2018-Feb-13 19:00N 46°05' W 001°33'2 4.8
2018-Feb-13 18:30N 46°05' W 001°30'2 4.1
2018-Feb-13 18:00N 46°05' W 001°27'3 5.3
2018-Feb-13 17:30N 46°06' W 001°24'4 7.3
2018-Feb-13 17:00N 46°06' W 001°18'3 6.9
2018-Feb-13 16:30N 46°09' W 001°15'1 2.6
2018-Feb-13 16:00N 46°09' W 001°14'0 0.0
2018-Feb-13 15:30N 46°09' W 001°14'0 0.1
2018-Feb-13 15:00N 46°09' W 001°14'0 0.2
2018-Feb-13 14:30N 46°10' W 001°14'0 0.0
2018-Feb-13 14:00N 46°10' W 001°14'0 0.0
2018-Feb-13 13:30N 46°10' W 001°14'0 0.0
2018-Feb-13 13:00N 46°10' W 001°14'0 0.0
2018-Feb-13 12:30N 46°10' W 001°14'0 0.0
2018-Feb-13 12:00N 46°10' W 001°14'0 0.0
2018-Feb-13 11:30N 46°10' W 001°14'0 0.0
2018-Feb-13 11:00N 46°10' W 001°14'0 0.0
2018-Feb-13 10:30N 46°10' W 001°14'0 0.0
2018-Feb-13 10:00N 46°10' W 001°14'0 0.0
2018-Feb-13 09:30N 46°10' W 001°14'0 0.0
2018-Feb-13 09:00N 46°10' W 001°14'0 0.0
2018-Feb-13 08:30N 46°10' W 001°14'0 0.0
2018-Feb-13 08:00N 46°10' W 001°14'0 0.0
2018-Feb-13 07:30N 46°10' W 001°14'0 0.0
2018-Feb-13 07:00N 46°10' W 001°14'0 0.0
2018-Feb-13 06:30N 46°10' W 001°14'3 5.7
2018-Feb-13 06:00N 46°07' W 001°16'4 8.3
2018-Feb-13 05:30N 46°06' W 001°21'510.2
2018-Feb-13 05:00N 46°06' W 001°29'4 8.1
2018-Feb-13 04:30N 46°05' W 001°34'1 1.1
2018-Feb-13 04:00N 46°05' W 001°34'1 1.0
2018-Feb-13 03:30N 46°05' W 001°34'0 0.4
2018-Feb-13 03:00N 46°05' W 001°34'0 0.9
2018-Feb-13 02:30N 46°05' W 001°34'1 1.8
2018-Feb-13 02:00N 46°05' W 001°35'611.1
2018-Feb-13 01:30N 46°10' W 001°40'612.4
2018-Feb-13 01:00N 46°14' W 001°46'612.5
2018-Feb-13 00:30N 46°19' W 001°52'612.0
2018-Feb-13 00:00N 46°24' W 001°56'611.8
2018-Feb-12 23:30N 46°30' W 001°60'612.0
2018-Feb-12 23:00N 46°35' W 002°05'612.5
2018-Feb-12 22:30N 46°40' W 002°09'612.1
2018-Feb-12 22:00N 46°45' W 002°15'612.2
2018-Feb-12 21:30N 46°48' W 002°22'612.2
2018-Feb-12 20:59N 46°53' W 002°29'612.0
2018-Feb-12 20:30N 46°57' W 002°34'612.0
2018-Feb-12 19:59N 47°02' W 002°40'612.0
2018-Feb-12 19:29N 47°07' W 002°45'612.3
2018-Feb-12 19:00N 47°11' W 002°51'612.5
2018-Feb-12 18:30N 47°16' W 002°57'612.6
2018-Feb-12 18:00N 47°21' W 003°03'612.0
2018-Feb-12 17:30N 47°25' W 003°09'612.0
2018-Feb-12 17:01N 47°30' W 003°14'612.6
2018-Feb-12 16:30N 47°36' W 003°19'612.4
2018-Feb-12 16:00N 47°41' W 003°22'4 7.9
2018-Feb-12 15:30N 47°45' W 003°19'0 0.1
2018-Feb-12 15:00N 47°45' W 003°19'0 0.0
2018-Feb-12 14:30N 47°45' W 003°19'0 0.0
2018-Feb-12 14:00N 47°45' W 003°19'3 5.2
2018-Feb-12 13:30N 47°43' W 003°22'611.0
2018-Feb-12 13:00N 47°37' W 003°21'611.6
2018-Feb-12 12:30N 47°33' W 003°16'611.5
2018-Feb-12 12:00N 47°28' W 003°11'611.1
2018-Feb-12 11:30N 47°23' W 003°07'611.6
2018-Feb-12 11:00N 47°19' W 003°00'611.6
2018-Feb-12 10:30N 47°15' W 002°54'611.6
2018-Feb-12 10:01N 47°11' W 002°49'611.7
2018-Feb-12 09:30N 47°07' W 002°43'611.7
2018-Feb-12 09:00N 47°03' W 002°36'3 6.1
2018-Feb-12 08:30N 47°00' W 002°34'1 1.3
2018-Feb-12 08:00N 46°60' W 002°34'1 1.2
2018-Feb-12 07:30N 46°60' W 002°35'1 1.1
2018-Feb-12 07:00N 46°59' W 002°36'4 7.0
2018-Feb-12 06:30N 47°02' W 002°40'612.5
2018-Feb-12 06:00N 47°07' W 002°45'612.8
2018-Feb-12 05:30N 47°12' W 002°51'612.9
2018-Feb-12 05:00N 47°16' W 002°57'713.3
2018-Feb-12 04:30N 47°21' W 003°04'612.6
2018-Feb-12 04:00N 47°26' W 003°10'612.8
2018-Feb-12 03:30N 47°32' W 003°15'713.0
2018-Feb-12 03:00N 47°37' W 003°20'612.1
2018-Feb-12 02:30N 47°43' W 003°22'2 5.0
2018-Feb-12 02:00N 47°45' W 003°19'0 0.0
2018-Feb-12 01:30N 47°45' W 003°19'0 0.0
2018-Feb-12 01:00N 47°45' W 003°19'1 1.8
2018-Feb-12 00:30N 47°44' W 003°20'4 8.7
2018-Feb-12 00:00N 47°40' W 003°22'510.9
2018-Feb-11 23:31N 47°35' W 003°18'510.5
2018-Feb-11 23:00N 47°31' W 003°14'5 9.8
2018-Feb-11 22:30N 47°27' W 003°10'5 9.7
2018-Feb-11 22:00N 47°23' W 003°05'510.5
2018-Feb-11 21:31N 47°19' W 003°00'510.6
2018-Feb-11 21:00N 47°15' W 002°55'510.4
2018-Feb-11 20:30N 47°11' W 002°50'510.5
2018-Feb-11 20:00N 47°07' W 002°45'510.4
2018-Feb-11 19:31N 47°03' W 002°40'510.4
2018-Feb-11 19:00N 46°59' W 002°35'510.1
2018-Feb-11 18:30N 46°55' W 002°31'5 9.7
2018-Feb-11 18:00N 46°52' W 002°26'5 9.4
2018-Feb-11 17:30N 46°48' W 002°21'5 9.5
2018-Feb-11 17:00N 46°45' W 002°16'5 9.8
2018-Feb-11 16:30N 46°42' W 002°11'5 9.9
2018-Feb-11 16:00N 46°38' W 002°06'510.0
2018-Feb-11 15:30N 46°35' W 002°01'5 9.9
2018-Feb-11 15:00N 46°31' W 001°56'5 9.8
2018-Feb-11 14:30N 46°27' W 001°51'510.2
2018-Feb-11 14:00N 46°24' W 001°46'1 2.8
2018-Feb-11 13:30N 46°22' W 001°45'0 0.5
2018-Feb-11 13:00N 46°22' W 001°45'0 0.1
2018-Feb-11 12:30N 46°22' W 001°45'3 6.3
2018-Feb-11 12:00N 46°24' W 001°48'611.0
2018-Feb-11 11:30N 46°28' W 001°54'510.9
2018-Feb-11 11:00N 46°32' W 001°59'510.8
2018-Feb-11 10:30N 46°36' W 002°04'510.6
2018-Feb-11 10:00N 46°41' W 002°09'611.3
2018-Feb-11 09:30N 46°44' W 002°15'611.3
2018-Feb-11 09:00N 46°48' W 002°21'611.0
2018-Feb-11 08:30N 46°53' W 002°27'510.5
2018-Feb-11 08:00N 46°56' W 002°32'5 9.8
2018-Feb-11 07:30N 47°00' W 002°36'510.1
2018-Feb-11 06:57N 47°04' W 002°42'510.2
2018-Feb-11 06:30N 47°08' W 002°46'510.2
2018-Feb-11 06:00N 47°11' W 002°51'510.2
2018-Feb-11 05:31N 47°15' W 002°56'510.1
2018-Feb-11 05:00N 47°19' W 003°01'510.2
2018-Feb-11 04:30N 47°23' W 003°06'5 9.6
2018-Feb-11 04:00N 47°27' W 003°10'5 9.8
2018-Feb-11 03:30N 47°31' W 003°13'5 9.9
2018-Feb-11 03:00N 47°36' W 003°17'5 9.9
2018-Feb-11 02:30N 47°40' W 003°21'4 9.1
2018-Feb-11 02:00N 47°44' W 003°21'1 2.7
2018-Feb-11 01:30N 47°45' W 003°19'0 0.0
2018-Feb-11 01:00N 47°45' W 003°19'0 0.0
2018-Feb-11 00:30N 47°45' W 003°19'2 4.8
2018-Feb-11 00:00N 47°43' W 003°22'510.3
2018-Feb-10 23:30N 47°38' W 003°20'611.5
2018-Feb-10 23:00N 47°33' W 003°15'611.5
2018-Feb-10 22:30N 47°28' W 003°11'611.3
2018-Feb-10 22:00N 47°23' W 003°07'611.6
2018-Feb-10 21:30N 47°20' W 003°00'611.6
2018-Feb-10 21:00N 47°16' W 002°54'611.3
2018-Feb-10 20:30N 47°11' W 002°49'611.6
2018-Feb-10 20:00N 47°08' W 002°43'611.6
2018-Feb-10 19:30N 47°04' W 002°36'4 7.7
2018-Feb-10 19:00N 47°00' W 002°33'1 1.7
2018-Feb-10 18:30N 46°60' W 002°34'1 1.2
2018-Feb-10 18:00N 46°60' W 002°35'1 2.6
2018-Feb-10 17:30N 46°59' W 002°37'612.5
2018-Feb-10 17:00N 47°04' W 002°43'612.5
2018-Feb-10 16:30N 47°09' W 002°48'612.7
2018-Feb-10 16:00N 47°14' W 002°54'612.8
2018-Feb-10 15:30N 47°19' W 003°01'612.8
2018-Feb-10 15:00N 47°24' W 003°07'612.3
2018-Feb-10 14:30N 47°29' W 003°12'612.4
2018-Feb-10 14:00N 47°34' W 003°16'612.7
2018-Feb-10 13:30N 47°40' W 003°21'5 9.3
2018-Feb-10 13:00N 47°44' W 003°20'1 1.9
2018-Feb-10 12:30N 47°45' W 003°19'0 0.0
2018-Feb-10 12:00N 47°45' W 003°19'0 0.6
2018-Feb-10 11:31N 47°45' W 003°20'4 8.1
2018-Feb-10 11:00N 47°41' W 003°22'4 8.1
2018-Feb-10 10:31N 47°38' W 003°19'4 8.7
2018-Feb-10 10:00N 47°34' W 003°16'4 8.8
2018-Feb-10 09:30N 47°30' W 003°12'4 8.6
2018-Feb-10 09:00N 47°27' W 003°09'4 8.0
2018-Feb-10 08:30N 47°23' W 003°06'4 8.6
2018-Feb-10 08:00N 47°20' W 003°01'5 9.2
2018-Feb-10 07:31N 47°17' W 002°57'5 9.6
2018-Feb-10 07:01N 47°13' W 002°52'5 9.7
2018-Feb-10 06:30N 47°09' W 002°47'5 9.9
2018-Feb-10 06:00N 47°06' W 002°43'510.3
2018-Feb-10 05:30N 47°02' W 002°38'510.6
2018-Feb-10 05:00N 46°58' W 002°32'510.4
2018-Feb-10 04:30N 46°54' W 002°27'510.7
2018-Feb-10 04:00N 46°50' W 002°22'510.4
2018-Feb-10 03:29N 46°46' W 002°16'510.3
2018-Feb-10 03:00N 46°43' W 002°11'510.7
2018-Feb-10 02:30N 46°39' W 002°06'510.5
2018-Feb-10 02:00N 46°35' W 002°01'510.5
2018-Feb-10 01:30N 46°30' W 001°57'510.7
2018-Feb-10 01:00N 46°27' W 001°51'5 9.9
2018-Feb-10 00:30N 46°23' W 001°46'1 2.5
2018-Feb-10 00:00N 46°22' W 001°45'0 0.1
2018-Feb-09 23:30N 46°22' W 001°45'0 0.9
2018-Feb-09 23:00N 46°22' W 001°45'2 8.2
2018-Feb-09 22:46N 46°23' W 001°48'7 9.5
2018-Feb-09 22:00N 46°29' W 001°54'5 9.8
2018-Feb-09 21:30N 46°33' W 001°59'10 9.8
2018-Feb-09 20:30N 46°40' W 002°08'5 9.9
2018-Feb-09 20:00N 46°44' W 002°14'48 9.5
2018-Feb-09 15:00N 47°19' W 003°00'15 9.7
2018-Feb-09 13:30N 47°31' W 003°13'5 9.6
2018-Feb-09 13:00N 47°35' W 003°17'10 5.1
2018-Feb-09 11:00N 47°45' W 003°19'0 0.0
2018-Feb-09 10:30N 47°45' W 003°19'1 2.3
2018-Feb-09 10:00N 47°44' W 003°21'9 8.6
2018-Feb-09 09:00N 47°36' W 003°17'5 9.7
2018-Feb-09 08:30N 47°32' W 003°14'510.0
2018-Feb-09 08:00N 47°28' W 003°10'5 9.7
2018-Feb-09 07:30N 47°23' W 003°06'510.4
2018-Feb-09 07:00N 47°19' W 003°01'611.5
2018-Feb-09 06:30N 47°14' W 002°57'7011.7
2018-Feb-09 00:30N 46°18' W 001°56'  
Track history (hours):
 
Tides and Currents Weather Stations Pressure Air Temp Water Temp Dewpoint Dewpoint Depression Visibility Wind Speed Wind Dir Waves Ship Positions

Andre.l

Last reported at 2018-Feb-19 00:00 UTC. Time now 2018-Feb-19 00:25 UTC.
Position N 45°45' W 001°28'.

Length 84 m; draft 4.3 m.

Type: Cargo ship. MMSI: 228219600.

Date/timePositionNaut miles runAvg speedWind from/ knotsBaromVisibWave heightAir tempDewpointWater temp
2018-Feb-19 00:00N 45°45' W 001°28'7 8.0
2018-Feb-18 23:11N 45°51' W 001°31'2 7.9
2018-Feb-18 22:58N 45°53' W 001°32'3 7.6
2018-Feb-18 22:30N 45°56' W 001°34'4 7.7
2018-Feb-18 22:00N 45°60' W 001°36'4 7.7
2018-Feb-18 21:30N 46°03' W 001°38'4 7.8
2018-Feb-18 21:00N 46°07' W 001°39'4 7.7
2018-Feb-18 20:30N 46°11' W 001°41'4 7.9
2018-Feb-18 20:00N 46°14' W 001°43'4 7.9
2018-Feb-18 19:30N 46°18' W 001°45'4 8.0
2018-Feb-18 19:00N 46°22' W 001°46'4 7.6
2018-Feb-18 18:30N 46°26' W 001°47'4 7.2
2018-Feb-18 18:00N 46°29' W 001°47'1 1.6
2018-Feb-18 17:30N 46°30' W 001°48'0 0.0
2018-Feb-18 17:00N 46°30' W 001°48'1 1.5
2018-Feb-18 16:30N 46°29' W 001°47'2 4.9
2018-Feb-18 16:00N 46°27' W 001°47'2 4.7
2018-Feb-18 15:30N 46°25' W 001°46'3 5.7
2018-Feb-18 15:00N 46°22' W 001°45'3 5.0
2018-Feb-18 14:30N 46°19' W 001°44'3 5.1
2018-Feb-18 14:00N 46°17' W 001°43'3 5.1
2018-Feb-18 13:30N 46°14' W 001°42'3 5.4
2018-Feb-18 13:00N 46°12' W 001°41'3 6.3
2018-Feb-18 12:30N 46°09' W 001°39'3 7.0
2018-Feb-18 12:00N 46°06' W 001°37'1 2.3
2018-Feb-18 11:31N 46°05' W 001°36'0 0.1
2018-Feb-18 11:00N 46°05' W 001°36'0 0.6
2018-Feb-18 10:31N 46°05' W 001°36'0 0.6
2018-Feb-18 10:00N 46°05' W 001°36'0 0.2
2018-Feb-18 09:31N 46°05' W 001°35'2 4.1
2018-Feb-18 09:00N 46°07' W 001°38'4 8.8
2018-Feb-18 08:30N 46°11' W 001°41'5 9.4
2018-Feb-18 08:00N 46°15' W 001°43'5 9.5
2018-Feb-18 07:30N 46°20' W 001°44'4 8.5
2018-Feb-18 07:00N 46°24' W 001°46'3 6.1
2018-Feb-18 06:30N 46°27' W 001°46'3 6.3
2018-Feb-18 06:00N 46°30' W 001°48'0 0.5
2018-Feb-18 05:30N 46°30' W 001°48'0 0.0
2018-Feb-18 05:00N 46°30' W 001°48'0 0.3
2018-Feb-18 04:30N 46°30' W 001°48'2 4.4
2018-Feb-18 04:00N 46°28' W 001°49'4 8.8
2018-Feb-18 03:30N 46°29' W 001°55'4 9.0
2018-Feb-18 03:00N 46°32' W 001°60'5 9.0
2018-Feb-18 02:30N 46°36' W 002°04'5 9.1
2018-Feb-18 02:00N 46°39' W 002°09'5 9.1
2018-Feb-18 01:30N 46°42' W 002°14'4 7.0
2018-Feb-18 01:00N 46°45' W 002°17'5 9.3
2018-Feb-18 00:30N 46°48' W 002°22'510.2
2018-Feb-18 00:00N 46°52' W 002°27'5 9.6
2018-Feb-17 23:30N 46°56' W 002°31'5 9.1
2018-Feb-17 23:00N 46°60' W 002°34'1 2.1
2018-Feb-17 22:30N 47°00' W 002°33'1 1.1
2018-Feb-17 22:00N 47°00' W 002°34'1 1.0
2018-Feb-17 21:30N 46°60' W 002°35'1 1.0
2018-Feb-17 21:00N 46°60' W 002°35'2 4.1
2018-Feb-17 20:27N 47°00' W 002°38'612.8
2018-Feb-17 20:00N 47°05' W 002°44'713.1
2018-Feb-17 19:30N 47°10' W 002°49'713.2
2018-Feb-17 19:00N 47°15' W 002°56'713.4
2018-Feb-17 18:30N 47°20' W 003°02'613.1
2018-Feb-17 18:00N 47°26' W 003°08'612.9
2018-Feb-17 17:31N 47°31' W 003°13'712.9
2018-Feb-17 17:00N 47°36' W 003°18'612.4
2018-Feb-17 16:30N 47°42' W 003°22'4 7.0
2018-Feb-17 16:00N 47°45' W 003°19'0 0.0
2018-Feb-17 15:31N 47°45' W 003°19'0 0.0
2018-Feb-17 15:01N 47°45' W 003°19'1 2.5
2018-Feb-17 14:30N 47°44' W 003°21'3 6.7
2018-Feb-17 14:00N 47°41' W 003°24'3 5.3
2018-Feb-17 13:30N 47°39' W 003°23'3 6.7
2018-Feb-17 13:00N 47°36' W 003°19'4 7.9
2018-Feb-17 12:31N 47°33' W 003°16'4 8.1
2018-Feb-17 12:00N 47°30' W 003°12'4 7.9
2018-Feb-17 11:31N 47°26' W 003°09'3 6.0
2018-Feb-17 11:00N 47°24' W 003°07'3 6.4
2018-Feb-17 10:30N 47°21' W 003°04'3 6.8
2018-Feb-17 10:00N 47°19' W 003°01'3 6.4
2018-Feb-17 09:31N 47°16' W 002°58'3 6.7
2018-Feb-17 09:00N 47°14' W 002°55'3 6.9
2018-Feb-17 08:30N 47°11' W 002°52'4 7.5
2018-Feb-17 08:00N 47°08' W 002°49'3 5.3
2018-Feb-17 07:30N 47°06' W 002°46'2 4.3
2018-Feb-17 07:00N 47°05' W 002°43'3 6.3
2018-Feb-17 06:30N 47°02' W 002°40'3 6.3
2018-Feb-17 06:01N 46°60' W 002°38'1 2.7
2018-Feb-17 05:30N 46°59' W 002°36'1 1.9
2018-Feb-17 05:00N 46°60' W 002°35'1 1.6
2018-Feb-17 04:30N 47°00' W 002°34'0 0.6
2018-Feb-17 04:00N 47°00' W 002°33'1 2.3
2018-Feb-17 03:30N 46°60' W 002°35'2 3.2
2018-Feb-17 03:00N 46°59' W 002°37'2 4.8
2018-Feb-17 02:29N 47°01' W 002°39'2 4.3
2018-Feb-17 01:56N 47°03' W 002°41'2 5.1
2018-Feb-17 01:28N 47°05' W 002°43'2 4.8
2018-Feb-17 01:00N 47°07' W 002°46'2 5.0
2018-Feb-17 00:31N 47°09' W 002°47'3 5.1
2018-Feb-17 00:00N 47°11' W 002°50'3 5.2
2018-Feb-16 23:30N 47°13' W 002°52'3 5.3
2018-Feb-16 23:01N 47°15' W 002°55'3 5.4
2018-Feb-16 22:31N 47°17' W 002°58'3 5.6
2018-Feb-16 22:01N 47°19' W 003°00'3 5.8
2018-Feb-16 21:31N 47°21' W 003°03'4 7.0
2018-Feb-16 21:00N 47°24' W 003°06'3 6.0
2018-Feb-16 20:31N 47°26' W 003°09'3 5.2
2018-Feb-16 20:01N 47°28' W 003°11'3 5.3
2018-Feb-16 19:31N 47°30' W 003°13'3 6.0
2018-Feb-16 19:01N 47°33' W 003°16'612.3
2018-Feb-16 18:30N 47°38' W 003°20'611.6
2018-Feb-16 18:00N 47°44' W 003°21'1 3.0
2018-Feb-16 17:30N 47°45' W 003°19'0 0.0
2018-Feb-16 17:00N 47°45' W 003°19'1 2.8
2018-Feb-16 16:30N 47°44' W 003°21'510.5
2018-Feb-16 16:00N 47°39' W 003°21'612.4
2018-Feb-16 15:30N 47°34' W 003°16'612.0
2018-Feb-16 15:00N 47°29' W 003°11'611.4
2018-Feb-16 14:30N 47°24' W 003°06'612.2
2018-Feb-16 14:00N 47°19' W 003°01'612.5
2018-Feb-16 13:30N 47°15' W 002°54'612.2
2018-Feb-16 13:00N 47°10' W 002°48'612.0
2018-Feb-16 12:30N 47°05' W 002°43'612.2
2018-Feb-16 12:00N 47°01' W 002°37'612.6
2018-Feb-16 11:30N 46°56' W 002°31'612.3
2018-Feb-16 11:00N 46°51' W 002°26'612.1
2018-Feb-16 10:30N 46°46' W 002°20'611.9
2018-Feb-16 10:01N 46°42' W 002°14'612.4
2018-Feb-16 09:30N 46°37' W 002°09'612.4
2018-Feb-16 09:00N 46°32' W 002°03'612.4
2018-Feb-16 08:30N 46°27' W 001°58'612.3
2018-Feb-16 08:00N 46°22' W 001°53'612.3
2018-Feb-16 07:30N 46°17' W 001°47'612.2
2018-Feb-16 07:00N 46°13' W 001°42'612.0
2018-Feb-16 06:30N 46°08' W 001°36'2 5.0
2018-Feb-16 06:00N 46°06' W 001°34'0 0.4
2018-Feb-16 05:30N 46°06' W 001°35'1 1.5
2018-Feb-16 05:00N 46°06' W 001°34'0 0.0
2018-Feb-16 04:30N 46°06' W 001°34'1 1.8
2018-Feb-16 04:00N 46°06' W 001°35'510.4
2018-Feb-16 03:30N 46°10' W 001°40'612.8
2018-Feb-16 03:00N 46°15' W 001°45'612.5
2018-Feb-16 02:30N 46°20' W 001°51'612.6
2018-Feb-16 02:00N 46°25' W 001°56'612.7
2018-Feb-16 01:30N 46°30' W 002°02'612.6
2018-Feb-16 01:00N 46°35' W 002°07'612.6
2018-Feb-16 00:30N 46°40' W 002°13'612.5
2018-Feb-16 00:01N 46°45' W 002°19'612.5
2018-Feb-15 23:30N 46°50' W 002°25'612.1
2018-Feb-15 23:00N 46°54' W 002°30'611.7
2018-Feb-15 22:30N 46°59' W 002°36'612.1
2018-Feb-15 22:00N 47°03' W 002°42'612.1
2018-Feb-15 21:30N 47°07' W 002°48'612.3
2018-Feb-15 21:00N 47°13' W 002°53'612.3
2018-Feb-15 20:30N 47°17' W 002°59'612.6
2018-Feb-15 20:00N 47°22' W 003°05'611.6
2018-Feb-15 19:30N 47°27' W 003°10'612.0
2018-Feb-15 19:00N 47°32' W 003°15'612.6
2018-Feb-15 18:30N 47°37' W 003°19'612.0
2018-Feb-15 18:00N 47°43' W 003°22'2 4.9
2018-Feb-15 17:30N 47°45' W 003°19'0 0.0
2018-Feb-15 17:00N 47°45' W 003°19'1 1.0
2018-Feb-15 16:30N 47°44' W 003°20'4 8.7
2018-Feb-15 16:00N 47°40' W 003°22'611.5
2018-Feb-15 15:30N 47°36' W 003°17'611.2
2018-Feb-15 15:00N 47°31' W 003°13'511.0
2018-Feb-15 14:30N 47°26' W 003°09'611.3
2018-Feb-15 14:00N 47°21' W 003°04'611.9
2018-Feb-15 13:30N 47°17' W 002°58'611.3
2018-Feb-15 13:00N 47°13' W 002°53'611.3
2018-Feb-15 12:31N 47°09' W 002°47'611.0
2018-Feb-15 12:00N 47°05' W 002°42'611.4
2018-Feb-15 11:29N 46°60' W 002°36'511.7
2018-Feb-15 11:00N 46°56' W 002°31'611.4
2018-Feb-15 10:30N 46°51' W 002°26'611.3
2018-Feb-15 10:00N 46°47' W 002°20'611.4
2018-Feb-15 09:30N 46°42' W 002°15'611.4
2018-Feb-15 09:00N 46°39' W 002°09'611.1
2018-Feb-15 08:30N 46°35' W 002°03'611.2
2018-Feb-15 08:00N 46°31' W 001°57'611.3
2018-Feb-15 07:30N 46°27' W 001°52'611.3
2018-Feb-15 07:00N 46°23' W 001°46'1 1.7
2018-Feb-15 06:30N 46°22' W 001°45'0 0.4
2018-Feb-15 06:00N 46°22' W 001°45'1 1.0
2018-Feb-15 05:30N 46°22' W 001°44'1 1.4
2018-Feb-15 05:00N 46°22' W 001°45'4 8.1
2018-Feb-15 04:30N 46°26' W 001°46'4 7.3
2018-Feb-15 04:00N 46°30' W 001°48'0 0.0
2018-Feb-15 03:30N 46°30' W 001°48'0 0.0
2018-Feb-15 03:00N 46°30' W 001°48'2 3.1
2018-Feb-15 02:30N 46°29' W 001°47'4 7.2
2018-Feb-15 02:00N 46°25' W 001°46'3 7.0
2018-Feb-15 01:30N 46°22' W 001°45'3 6.6
2018-Feb-15 01:00N 46°18' W 001°44'4 7.4
2018-Feb-15 00:30N 46°15' W 001°43'4 7.1
2018-Feb-15 00:00N 46°11' W 001°41'3 6.9
2018-Feb-14 23:30N 46°08' W 001°39'3 6.1
2018-Feb-14 23:00N 46°06' W 001°37'1 2.0
2018-Feb-14 22:30N 46°06' W 001°35'1 1.5
2018-Feb-14 22:00N 46°06' W 001°34'0 0.7
2018-Feb-14 21:30N 46°06' W 001°33'1 2.1
2018-Feb-14 21:00N 46°06' W 001°35'3 5.6
2018-Feb-14 20:30N 46°09' W 001°36'4 7.0
2018-Feb-14 20:00N 46°11' W 001°40'4 7.1
2018-Feb-14 19:30N 46°14' W 001°42'3 6.1
2018-Feb-14 19:00N 46°17' W 001°44'3 6.0
2018-Feb-14 18:30N 46°20' W 001°45'3 6.0
2018-Feb-14 18:00N 46°23' W 001°46'3 5.5
2018-Feb-14 17:30N 46°26' W 001°46'2 4.8
2018-Feb-14 17:00N 46°28' W 001°47'2 4.0
2018-Feb-14 16:30N 46°30' W 001°48'0 0.0
2018-Feb-14 16:00N 46°30' W 001°48'0 0.0
2018-Feb-14 15:30N 46°30' W 001°48'2 3.5
2018-Feb-14 15:00N 46°28' W 001°47'4 8.6
2018-Feb-14 14:30N 46°24' W 001°46'4 8.8
2018-Feb-14 14:00N 46°20' W 001°45'4 8.9
2018-Feb-14 13:30N 46°15' W 001°43'4 8.6
2018-Feb-14 13:00N 46°11' W 001°41'4 8.5
2018-Feb-14 12:30N 46°08' W 001°38'3 5.7
2018-Feb-14 12:00N 46°05' W 001°36'0 0.2
2018-Feb-14 11:30N 46°05' W 001°36'0 0.5
2018-Feb-14 11:00N 46°06' W 001°36'0 0.3
2018-Feb-14 10:30N 46°06' W 001°36'0 0.3
2018-Feb-14 10:00N 46°05' W 001°36'1 3.0
2018-Feb-14 09:30N 46°06' W 001°37'3 6.8
2018-Feb-14 09:00N 46°09' W 001°39'2 3.9
2018-Feb-14 08:30N 46°11' W 001°41'2 4.5
2018-Feb-14 08:00N 46°13' W 001°43'2 4.3
2018-Feb-14 07:30N 46°15' W 001°44'2 4.1
2018-Feb-14 07:00N 46°17' W 001°46'2 4.3
2018-Feb-14 06:30N 46°18' W 001°48'2 4.5
2018-Feb-14 06:00N 46°20' W 001°49'3 5.1
2018-Feb-14 05:29N 46°23' W 001°50'3 6.0
2018-Feb-14 05:00N 46°25' W 001°48'3 5.3
2018-Feb-14 04:30N 46°28' W 001°47'2 4.4
2018-Feb-14 04:00N 46°30' W 001°48'0 0.0
2018-Feb-14 03:30N 46°30' W 001°48'0 0.0
2018-Feb-14 03:00N 46°30' W 001°48'1 2.9
2018-Feb-14 02:30N 46°29' W 001°47'3 5.1
2018-Feb-14 02:00N 46°26' W 001°47'2 4.8
2018-Feb-14 01:30N 46°24' W 001°46'2 4.7
2018-Feb-14 01:00N 46°21' W 001°46'2 4.8
2018-Feb-14 00:30N 46°19' W 001°46'2 5.0
2018-Feb-14 00:00N 46°17' W 001°45'2 4.8
2018-Feb-13 23:30N 46°14' W 001°43'2 4.3
2018-Feb-13 23:00N 46°13' W 001°41'2 4.2
2018-Feb-13 22:30N 46°11' W 001°40'2 4.6
2018-Feb-13 22:00N 46°09' W 001°38'3 5.2
2018-Feb-13 21:30N 46°07' W 001°37'2 3.0
2018-Feb-13 21:00N 46°05' W 001°36'0 1.0
2018-Feb-13 20:30N 46°05' W 001°35'0 0.1
2018-Feb-13 20:00N 46°05' W 001°36'0 0.5
2018-Feb-13 19:30N 46°05' W 001°36'2 3.2
2018-Feb-13 19:00N 46°05' W 001°33'2 4.8
2018-Feb-13 18:30N 46°05' W 001°30'2 4.1
2018-Feb-13 18:00N 46°05' W 001°27'3 5.3
2018-Feb-13 17:30N 46°06' W 001°24'4 7.3
2018-Feb-13 17:00N 46°06' W 001°18'3 6.9
2018-Feb-13 16:30N 46°09' W 001°15'1 2.6
2018-Feb-13 16:00N 46°09' W 001°14'0 0.0
2018-Feb-13 15:30N 46°09' W 001°14'0 0.1
2018-Feb-13 15:00N 46°09' W 001°14'0 0.2
2018-Feb-13 14:30N 46°10' W 001°14'0 0.0
2018-Feb-13 14:00N 46°10' W 001°14'0 0.0
2018-Feb-13 13:30N 46°10' W 001°14'0 0.0
2018-Feb-13 13:00N 46°10' W 001°14'0 0.0
2018-Feb-13 12:30N 46°10' W 001°14'0 0.0
2018-Feb-13 12:00N 46°10' W 001°14'0 0.0
2018-Feb-13 11:30N 46°10' W 001°14'0 0.0
2018-Feb-13 11:00N 46°10' W 001°14'0 0.0
2018-Feb-13 10:30N 46°10' W 001°14'0 0.0
2018-Feb-13 10:00N 46°10' W 001°14'0 0.0
2018-Feb-13 09:30N 46°10' W 001°14'0 0.0
2018-Feb-13 09:00N 46°10' W 001°14'0 0.0
2018-Feb-13 08:30N 46°10' W 001°14'0 0.0
2018-Feb-13 08:00N 46°10' W 001°14'0 0.0
2018-Feb-13 07:30N 46°10' W 001°14'0 0.0
2018-Feb-13 07:00N 46°10' W 001°14'0 0.0
2018-Feb-13 06:30N 46°10' W 001°14'3 5.7
2018-Feb-13 06:00N 46°07' W 001°16'4 8.3
2018-Feb-13 05:30N 46°06' W 001°21'510.2
2018-Feb-13 05:00N 46°06' W 001°29'4 8.1
2018-Feb-13 04:30N 46°05' W 001°34'1 1.1
2018-Feb-13 04:00N 46°05' W 001°34'1 1.0
2018-Feb-13 03:30N 46°05' W 001°34'0 0.4
2018-Feb-13 03:00N 46°05' W 001°34'0 0.9
2018-Feb-13 02:30N 46°05' W 001°34'1 1.8
2018-Feb-13 02:00N 46°05' W 001°35'611.1
2018-Feb-13 01:30N 46°10' W 001°40'612.4
2018-Feb-13 01:00N 46°14' W 001°46'612.5
2018-Feb-13 00:30N 46°19' W 001°52'612.0
2018-Feb-13 00:00N 46°24' W 001°56'611.8
2018-Feb-12 23:30N 46°30' W 001°60'612.0
2018-Feb-12 23:00N 46°35' W 002°05'612.5
2018-Feb-12 22:30N 46°40' W 002°09'612.1
2018-Feb-12 22:00N 46°45' W 002°15'612.2
2018-Feb-12 21:30N 46°48' W 002°22'612.2
2018-Feb-12 20:59N 46°53' W 002°29'612.0
2018-Feb-12 20:30N 46°57' W 002°34'612.0
2018-Feb-12 19:59N 47°02' W 002°40'612.0
2018-Feb-12 19:29N 47°07' W 002°45'612.3
2018-Feb-12 19:00N 47°11' W 002°51'612.5
2018-Feb-12 18:30N 47°16' W 002°57'612.6
2018-Feb-12 18:00N 47°21' W 003°03'612.0
2018-Feb-12 17:30N 47°25' W 003°09'612.0
2018-Feb-12 17:01N 47°30' W 003°14'612.6
2018-Feb-12 16:30N 47°36' W 003°19'612.4
2018-Feb-12 16:00N 47°41' W 003°22'4 7.9
2018-Feb-12 15:30N 47°45' W 003°19'0 0.1
2018-Feb-12 15:00N 47°45' W 003°19'0 0.0
2018-Feb-12 14:30N 47°45' W 003°19'0 0.0
2018-Feb-12 14:00N 47°45' W 003°19'3 5.2
2018-Feb-12 13:30N 47°43' W 003°22'611.0
2018-Feb-12 13:00N 47°37' W 003°21'611.6
2018-Feb-12 12:30N 47°33' W 003°16'611.5
2018-Feb-12 12:00N 47°28' W 003°11'611.1
2018-Feb-12 11:30N 47°23' W 003°07'611.6
2018-Feb-12 11:00N 47°19' W 003°00'611.6
2018-Feb-12 10:30N 47°15' W 002°54'611.6
2018-Feb-12 10:01N 47°11' W 002°49'611.7
2018-Feb-12 09:30N 47°07' W 002°43'611.7
2018-Feb-12 09:00N 47°03' W 002°36'3 6.1
2018-Feb-12 08:30N 47°00' W 002°34'1 1.3
2018-Feb-12 08:00N 46°60' W 002°34'1 1.2
2018-Feb-12 07:30N 46°60' W 002°35'1 1.1
2018-Feb-12 07:00N 46°59' W 002°36'4 7.0
2018-Feb-12 06:30N 47°02' W 002°40'612.5
2018-Feb-12 06:00N 47°07' W 002°45'612.8
2018-Feb-12 05:30N 47°12' W 002°51'612.9
2018-Feb-12 05:00N 47°16' W 002°57'713.3
2018-Feb-12 04:30N 47°21' W 003°04'612.6
2018-Feb-12 04:00N 47°26' W 003°10'612.8
2018-Feb-12 03:30N 47°32' W 003°15'713.0
2018-Feb-12 03:00N 47°37' W 003°20'612.1
2018-Feb-12 02:30N 47°43' W 003°22'2 5.0
2018-Feb-12 02:00N 47°45' W 003°19'0 0.0
2018-Feb-12 01:30N 47°45' W 003°19'0 0.0
2018-Feb-12 01:00N 47°45' W 003°19'1 1.8
2018-Feb-12 00:30N 47°44' W 003°20'4 8.7
2018-Feb-12 00:00N 47°40' W 003°22'510.9
2018-Feb-11 23:31N 47°35' W 003°18'510.5
2018-Feb-11 23:00N 47°31' W 003°14'5 9.8
2018-Feb-11 22:30N 47°27' W 003°10'5 9.7
2018-Feb-11 22:00N 47°23' W 003°05'510.5
2018-Feb-11 21:31N 47°19' W 003°00'510.6
2018-Feb-11 21:00N 47°15' W 002°55'510.4
2018-Feb-11 20:30N 47°11' W 002°50'510.5
2018-Feb-11 20:00N 47°07' W 002°45'510.4
2018-Feb-11 19:31N 47°03' W 002°40'510.4
2018-Feb-11 19:00N 46°59' W 002°35'510.1
2018-Feb-11 18:30N 46°55' W 002°31'5 9.7
2018-Feb-11 18:00N 46°52' W 002°26'5 9.4
2018-Feb-11 17:30N 46°48' W 002°21'5 9.5
2018-Feb-11 17:00N 46°45' W 002°16'5 9.8
2018-Feb-11 16:30N 46°42' W 002°11'5 9.9
2018-Feb-11 16:00N 46°38' W 002°06'510.0
2018-Feb-11 15:30N 46°35' W 002°01'5 9.9
2018-Feb-11 15:00N 46°31' W 001°56'5 9.8
2018-Feb-11 14:30N 46°27' W 001°51'510.2
2018-Feb-11 14:00N 46°24' W 001°46'1 2.8
2018-Feb-11 13:30N 46°22' W 001°45'0 0.5
2018-Feb-11 13:00N 46°22' W 001°45'0 0.1
2018-Feb-11 12:30N 46°22' W 001°45'3 6.3
2018-Feb-11 12:00N 46°24' W 001°48'611.0
2018-Feb-11 11:30N 46°28' W 001°54'510.9
2018-Feb-11 11:00N 46°32' W 001°59'510.8
2018-Feb-11 10:30N 46°36' W 002°04'510.6
2018-Feb-11 10:00N 46°41' W 002°09'611.3
2018-Feb-11 09:30N 46°44' W 002°15'611.3
2018-Feb-11 09:00N 46°48' W 002°21'611.0
2018-Feb-11 08:30N 46°53' W 002°27'510.5
2018-Feb-11 08:00N 46°56' W 002°32'5 9.8
2018-Feb-11 07:30N 47°00' W 002°36'510.1
2018-Feb-11 06:57N 47°04' W 002°42'510.2
2018-Feb-11 06:30N 47°08' W 002°46'510.2
2018-Feb-11 06:00N 47°11' W 002°51'510.2
2018-Feb-11 05:31N 47°15' W 002°56'510.1
2018-Feb-11 05:00N 47°19' W 003°01'510.2
2018-Feb-11 04:30N 47°23' W 003°06'5 9.6
2018-Feb-11 04:00N 47°27' W 003°10'5 9.8
2018-Feb-11 03:30N 47°31' W 003°13'5 9.9
2018-Feb-11 03:00N 47°36' W 003°17'5 9.9
2018-Feb-11 02:30N 47°40' W 003°21'4 9.1
2018-Feb-11 02:00N 47°44' W 003°21'1 2.7
2018-Feb-11 01:30N 47°45' W 003°19'0 0.0
2018-Feb-11 01:00N 47°45' W 003°19'0 0.0
2018-Feb-11 00:30N 47°45' W 003°19'2 4.8
2018-Feb-11 00:00N 47°43' W 003°22'510.3
2018-Feb-10 23:30N 47°38' W 003°20'611.5
2018-Feb-10 23:00N 47°33' W 003°15'611.5
2018-Feb-10 22:30N 47°28' W 003°11'611.3
2018-Feb-10 22:00N 47°23' W 003°07'611.6
2018-Feb-10 21:30N 47°20' W 003°00'611.6
2018-Feb-10 21:00N 47°16' W 002°54'611.3
2018-Feb-10 20:30N 47°11' W 002°49'611.6
2018-Feb-10 20:00N 47°08' W 002°43'611.6
2018-Feb-10 19:30N 47°04' W 002°36'4 7.7
2018-Feb-10 19:00N 47°00' W 002°33'1 1.7
2018-Feb-10 18:30N 46°60' W 002°34'1 1.2
2018-Feb-10 18:00N 46°60' W 002°35'1 2.6
2018-Feb-10 17:30N 46°59' W 002°37'612.5
2018-Feb-10 17:00N 47°04' W 002°43'612.5
2018-Feb-10 16:30N 47°09' W 002°48'612.7
2018-Feb-10 16:00N 47°14' W 002°54'612.8
2018-Feb-10 15:30N 47°19' W 003°01'612.8
2018-Feb-10 15:00N 47°24' W 003°07'612.3
2018-Feb-10 14:30N 47°29' W 003°12'612.4
2018-Feb-10 14:00N 47°34' W 003°16'612.7
2018-Feb-10 13:30N 47°40' W 003°21'5 9.3
2018-Feb-10 13:00N 47°44' W 003°20'1 1.9
2018-Feb-10 12:30N 47°45' W 003°19'0 0.0
2018-Feb-10 12:00N 47°45' W 003°19'0 0.6
2018-Feb-10 11:31N 47°45' W 003°20'4 8.1
2018-Feb-10 11:00N 47°41' W 003°22'4 8.1
2018-Feb-10 10:31N 47°38' W 003°19'4 8.7
2018-Feb-10 10:00N 47°34' W 003°16'4 8.8
2018-Feb-10 09:30N 47°30' W 003°12'4 8.6
2018-Feb-10 09:00N 47°27' W 003°09'4 8.0
2018-Feb-10 08:30N 47°23' W 003°06'4 8.6
2018-Feb-10 08:00N 47°20' W 003°01'5 9.2
2018-Feb-10 07:31N 47°17' W 002°57'5 9.6
2018-Feb-10 07:01N 47°13' W 002°52'5 9.7
2018-Feb-10 06:30N 47°09' W 002°47'5 9.9
2018-Feb-10 06:00N 47°06' W 002°43'510.3
2018-Feb-10 05:30N 47°02' W 002°38'510.6
2018-Feb-10 05:00N 46°58' W 002°32'510.4
2018-Feb-10 04:30N 46°54' W 002°27'510.7
2018-Feb-10 04:00N 46°50' W 002°22'510.4
2018-Feb-10 03:29N 46°46' W 002°16'510.3
2018-Feb-10 03:00N 46°43' W 002°11'510.7
2018-Feb-10 02:30N 46°39' W 002°06'510.5
2018-Feb-10 02:00N 46°35' W 002°01'510.5
2018-Feb-10 01:30N 46°30' W 001°57'510.7
2018-Feb-10 01:00N 46°27' W 001°51'5 9.9
2018-Feb-10 00:30N 46°23' W 001°46'1 2.5
2018-Feb-10 00:00N 46°22' W 001°45'0 0.1
2018-Feb-09 23:30N 46°22' W 001°45'0 0.9
2018-Feb-09 23:00N 46°22' W 001°45'2 8.2
2018-Feb-09 22:46N 46°23' W 001°48'7 9.5
2018-Feb-09 22:00N 46°29' W 001°54'5 9.8
2018-Feb-09 21:30N 46°33' W 001°59'10 9.8
2018-Feb-09 20:30N 46°40' W 002°08'5 9.9
2018-Feb-09 20:00N 46°44' W 002°14'48 9.5
2018-Feb-09 15:00N 47°19' W 003°00'15 9.7
2018-Feb-09 13:30N 47°31' W 003°13'5 9.6
2018-Feb-09 13:00N 47°35' W 003°17'10 5.1
2018-Feb-09 11:00N 47°45' W 003°19'0 0.0
2018-Feb-09 10:30N 47°45' W 003°19'1 2.3
2018-Feb-09 10:00N 47°44' W 003°21'9 8.6
2018-Feb-09 09:00N 47°36' W 003°17'5 9.7
2018-Feb-09 08:30N 47°32' W 003°14'510.0
2018-Feb-09 08:00N 47°28' W 003°10'5 9.7
2018-Feb-09 07:30N 47°23' W 003°06'510.4
2018-Feb-09 07:00N 47°19' W 003°01'611.5
2018-Feb-09 06:30N 47°14' W 002°57'7011.7
2018-Feb-09 00:30N 46°18' W 001°56'  

Dump ship's entire track history